Pagrindinis puslapis
METAR-TAF:

METAR-TAF

Oro uostai :

Kapolei, Havajai, Jungtinės Amerikos Valstijos

platuma: 21-18-30N, ilguma: 158-04-05W, Aukštis: 10 m

Dabartinis oras

Ataskaita buvo paskelbta 14 minutes, ne 00:53 UTC
Vėjas 14 kt iš Vakarų/Šiaurės Vakarų
Temperatūra 28°C
Drėgmė 55%
Slėgis 1019 hPa
Matomumas: 16.1 km
Giedras dangus

METAR: PHJR 240053Z 29014KT 10SM CLR 28/18 A3008 RMK AO2 SLP190 T02830183

Laikas: 15:07 (01:07 UTC)

Prognozė

Ataskaita buvo paskelbta 15 minutes, ne 00:52 UTC
Prognozė galioja nuo 24 metu 01 UTC su 24 metu 24 UTC
Vėjas 8 kt iš Vakarų
Matomumas: 10 km
Mažai debesys ne aukštis 2000 ft
Išsisklaidę debesys ne aukštis 6000 ft
Nuo 24 metu 0600 UTC
Vėjas 4 kt nuo kintamojo kryptimis
Matomumas: 10 km
Mažai debesys ne aukštis 3500 ft
Nuo 24 metu 2100 UTC
Vėjas 8 kt iš Rytų/Pietryčių
Matomumas: 10 km
Mažai debesys ne aukštis 2500 ft
Išsisklaidę debesys ne aukštis 6000 ft

TAF: PHJR 240052Z 2401/2424 28008KT P6SM FEW020 SCT060 FM240600 VRB04KT P6SM FEW035 FM242100 12008KT P6SM FEW025 SCT060

Orai ataskaitas ir orų prognozės (METAR, TAF).

turimą stotys yra geltonos ir raudonos taškus žemėlapyje.

Perkelti pele per norėdami pamatyti stoties vardą.

Tada spustelėkite, norėdami matyti oro stebėjimo ir prognozės.

Norėdami pakeisti žemėlapį: spustelėkite ant žalios mygtukų su juodo kryžiaus žemyn,; žalią mygtuką su brūkšneliu, jei norite nutolinti; arba žalių rodyklių gretimoms žemėlapius.


METAR-TAF: